sensor_id;sensor_type;location;lat;lon;timestamp;pressure;altitude;pressure_sealevel;temperature;humidity
68193;BME280;55012;47.562;18.414;2023-02-03T00:00:43;100450.50;;;0.25;100.00
68193;BME280;55012;47.562;18.414;2023-02-03T00:03:09;100452.38;;;0.25;100.00
68193;BME280;55012;47.562;18.414;2023-02-03T00:05:35;100456.63;;;0.26;100.00
68193;BME280;55012;47.562;18.414;2023-02-03T00:08:02;100451.88;;;0.28;100.00
68193;BME280;55012;47.562;18.414;2023-02-03T00:10:28;100449.47;;;0.26;100.00
68193;BME280;55012;47.562;18.414;2023-02-03T00:12:54;100449.72;;;0.25;100.00
68193;BME280;55012;47.562;18.414;2023-02-03T00:15:20;100461.88;;;0.21;100.00
68193;BME280;55012;47.562;18.414;2023-02-03T00:17:47;100463.44;;;0.17;100.00
68193;BME280;55012;47.562;18.414;2023-02-03T00:20:13;100449.25;;;0.11;100.00
68193;BME280;55012;47.562;18.414;2023-02-03T00:22:38;100464.41;;;0.11;100.00
68193;BME280;55012;47.562;18.414;2023-02-03T00:25:04;100461.41;;;0.07;100.00
68193;BME280;55012;47.562;18.414;2023-02-03T00:27:30;100468.31;;;0.03;100.00
68193;BME280;55012;47.562;18.414;2023-02-03T00:29:56;100461.28;;;-0.03;100.00
68193;BME280;55012;47.562;18.414;2023-02-03T00:32:21;100460.97;;;-0.07;100.00
68193;BME280;55012;47.562;18.414;2023-02-03T00:34:47;100467.03;;;-0.11;100.00
68193;BME280;55012;47.562;18.414;2023-02-03T00:37:12;100480.56;;;-0.13;100.00
68193;BME280;55012;47.562;18.414;2023-02-03T00:39:38;100473.31;;;-0.17;100.00
68193;BME280;55012;47.562;18.414;2023-02-03T00:42:04;100481.53;;;-0.19;100.00
68193;BME280;55012;47.562;18.414;2023-02-03T00:44:30;100477.25;;;-0.20;100.00
68193;BME280;55012;47.562;18.414;2023-02-03T00:46:56;100484.44;;;-0.20;100.00
68193;BME280;55012;47.562;18.414;2023-02-03T00:49:21;100488.25;;;-0.16;100.00
68193;BME280;55012;47.562;18.414;2023-02-03T00:51:47;100488.00;;;-0.15;100.00
68193;BME280;55012;47.562;18.414;2023-02-03T00:54:13;100488.25;;;-0.16;100.00
68193;BME280;55012;47.562;18.414;2023-02-03T00:56:39;100493.56;;;-0.16;100.00
68193;BME280;55012;47.562;18.414;2023-02-03T00:59:04;100503.63;;;-0.18;100.00
68193;BME280;55012;47.562;18.414;2023-02-03T01:01:31;100492.50;;;-0.15;100.00
68193;BME280;55012;47.562;18.414;2023-02-03T01:03:57;100497.03;;;-0.16;100.00
68193;BME280;55012;47.562;18.414;2023-02-03T01:06:23;100499.44;;;-0.14;100.00
68193;BME280;55012;47.562;18.414;2023-02-03T01:08:49;100498.03;;;-0.17;100.00
68193;BME280;55012;47.562;18.414;2023-02-03T01:11:18;100508.69;;;-0.17;100.00
68193;BME280;55012;47.562;18.414;2023-02-03T01:13:45;100520.63;;;-0.19;100.00
68193;BME280;55012;47.562;18.414;2023-02-03T01:16:14;100520.88;;;-0.21;100.00
68193;BME280;55012;47.562;18.414;2023-02-03T01:18:40;100516.59;;;-0.22;100.00
68193;BME280;55012;47.562;18.414;2023-02-03T01:21:12;100524.03;;;-0.24;100.00
68193;BME280;55012;47.562;18.414;2023-02-03T01:23:38;100507.72;;;-0.28;100.00
68193;BME280;55012;47.562;18.414;2023-02-03T01:26:09;100507.16;;;-0.30;100.00
68193;BME280;55012;47.562;18.414;2023-02-03T01:28:36;100511.34;;;-0.34;100.00
68193;BME280;55012;47.562;18.414;2023-02-03T01:31:14;100511.03;;;-0.37;100.00
68193;BME280;55012;47.562;18.414;2023-02-03T01:33:41;100507.00;;;-0.40;100.00
68193;BME280;55012;47.562;18.414;2023-02-03T01:36:10;100512.78;;;-0.43;100.00
68193;BME280;55012;47.562;18.414;2023-02-03T01:38:37;100509.03;;;-0.47;100.00
68193;BME280;55012;47.562;18.414;2023-02-03T01:41:05;100512.38;;;-0.51;100.00
68193;BME280;55012;47.562;18.414;2023-02-03T01:43:43;100514.97;;;-0.57;100.00
68193;BME280;55012;47.562;18.414;2023-02-03T01:46:37;100512.22;;;-0.62;100.00
68193;BME280;55012;47.562;18.414;2023-02-03T01:51:29;100518.97;;;-0.71;100.00
68193;BME280;55012;47.562;18.414;2023-02-03T01:53:56;100519.22;;;-0.72;100.00
68193;BME280;55012;47.562;18.414;2023-02-03T01:56:23;100510.69;;;-0.74;100.00
68193;BME280;55012;47.562;18.414;2023-02-03T01:58:51;100515.66;;;-0.78;100.00
68193;BME280;55012;47.562;18.414;2023-02-03T02:01:17;100524.09;;;-0.81;100.00
68193;BME280;55012;47.562;18.414;2023-02-03T02:03:51;100523.31;;;-0.81;100.00
68193;BME280;55012;47.562;18.414;2023-02-03T02:06:18;100515.22;;;-0.87;100.00
68193;BME280;55012;47.562;18.414;2023-02-03T02:08:47;100512.00;;;-0.89;100.00
68193;BME280;55012;47.562;18.414;2023-02-03T02:11:14;100515.47;;;-0.88;100.00
68193;BME280;55012;47.562;18.414;2023-02-03T02:13:42;100532.78;;;-0.86;100.00
68193;BME280;55012;47.562;18.414;2023-02-03T02:16:15;100531.16;;;-0.87;100.00
68193;BME280;55012;47.562;18.414;2023-02-03T02:30:03;100546.31;;;-0.87;100.00
68193;BME280;55012;47.562;18.414;2023-02-03T02:35:17;100525.63;;;-0.85;100.00
68193;BME280;55012;47.562;18.414;2023-02-03T02:40:45;100543.50;;;-0.80;100.00
68193;BME280;55012;47.562;18.414;2023-02-03T02:43:25;100536.34;;;-0.80;100.00
68193;BME280;55012;47.562;18.414;2023-02-03T02:46:01;100541.09;;;-0.82;100.00
68193;BME280;55012;47.562;18.414;2023-02-03T02:50:56;100537.78;;;-0.89;100.00
68193;BME280;55012;47.562;18.414;2023-02-03T02:53:25;100534.75;;;-0.93;100.00
68193;BME280;55012;47.562;18.414;2023-02-03T02:55:54;100528.31;;;-0.97;100.00
68193;BME280;55012;47.562;18.414;2023-02-03T02:58:22;100527.97;;;-1.00;100.00
68193;BME280;55012;47.562;18.414;2023-02-03T03:00:49;100523.16;;;-1.03;100.00
68193;BME280;55012;47.562;18.414;2023-02-03T03:03:15;100529.16;;;-1.08;100.00
68193;BME280;55012;47.562;18.414;2023-02-03T03:06:09;100522.97;;;-1.14;100.00
68193;BME280;55012;47.562;18.414;2023-02-03T03:08:53;100521.25;;;-1.20;100.00
68193;BME280;55012;47.562;18.414;2023-02-03T03:11:24;100527.34;;;-1.19;100.00
68193;BME280;55012;47.562;18.414;2023-02-03T03:13:53;100517.78;;;-1.20;100.00
68193;BME280;55012;47.562;18.414;2023-02-03T03:16:26;100519.63;;;-1.21;100.00
68193;BME280;55012;47.562;18.414;2023-02-03T03:19:02;100515.38;;;-1.22;100.00
68193;BME280;55012;47.562;18.414;2023-02-03T03:21:40;100509.94;;;-1.27;100.00
68193;BME280;55012;47.562;18.414;2023-02-03T03:24:09;100508.09;;;-1.26;100.00
68193;BME280;55012;47.562;18.414;2023-02-03T03:26:49;100504.88;;;-1.28;100.00
68193;BME280;55012;47.562;18.414;2023-02-03T03:29:21;100509.06;;;-1.32;100.00
68193;BME280;55012;47.562;18.414;2023-02-03T03:31:49;100509.50;;;-1.35;100.00
68193;BME280;55012;47.562;18.414;2023-02-03T03:34:15;100501.78;;;-1.37;100.00
68193;BME280;55012;47.562;18.414;2023-02-03T03:36:46;100491.16;;;-1.37;100.00
68193;BME280;55012;47.562;18.414;2023-02-03T03:39:35;100493.00;;;-1.37;100.00
68193;BME280;55012;47.562;18.414;2023-02-03T03:45:13;100506.41;;;-1.44;100.00
68193;BME280;55012;47.562;18.414;2023-02-03T03:47:43;100502.38;;;-1.47;100.00
68193;BME280;55012;47.562;18.414;2023-02-03T03:50:16;100507.94;;;-1.48;100.00
68193;BME280;55012;47.562;18.414;2023-02-03T03:52:43;100504.81;;;-1.45;100.00
68193;BME280;55012;47.562;18.414;2023-02-03T03:55:11;100518.28;;;-1.35;100.00
68193;BME280;55012;47.562;18.414;2023-02-03T03:57:44;100514.38;;;-1.32;100.00
68193;BME280;55012;47.562;18.414;2023-02-03T04:00:14;100500.50;;;-1.34;100.00
68193;BME280;55012;47.562;18.414;2023-02-03T04:02:43;100502.91;;;-1.33;100.00
68193;BME280;55012;47.562;18.414;2023-02-03T04:05:11;100494.75;;;-1.31;100.00
68193;BME280;55012;47.562;18.414;2023-02-03T04:07:40;100491.84;;;-1.30;100.00
68193;BME280;55012;47.562;18.414;2023-02-03T04:10:33;100491.13;;;-1.25;100.00
68193;BME280;55012;47.562;18.414;2023-02-03T04:12:58;100486.97;;;-1.21;100.00
68193;BME280;55012;47.562;18.414;2023-02-03T04:15:24;100483.13;;;-1.14;100.00
68193;BME280;55012;47.562;18.414;2023-02-03T04:17:49;100479.19;;;-1.11;100.00
68193;BME280;55012;47.562;18.414;2023-02-03T04:20:15;100475.25;;;-1.08;100.00
68193;BME280;55012;47.562;18.414;2023-02-03T04:22:41;100479.06;;;-1.04;100.00
68193;BME280;55012;47.562;18.414;2023-02-03T04:25:07;100475.66;;;-1.00;100.00
68193;BME280;55012;47.562;18.414;2023-02-03T04:27:34;100482.69;;;-0.94;100.00
68193;BME280;55012;47.562;18.414;2023-02-03T04:29:59;100488.34;;;-0.90;100.00
68193;BME280;55012;47.562;18.414;2023-02-03T04:32:25;100483.84;;;-0.90;100.00
68193;BME280;55012;47.562;18.414;2023-02-03T04:34:50;100492.22;;;-0.81;100.00
68193;BME280;55012;47.562;18.414;2023-02-03T04:37:16;100487.47;;;-0.79;100.00
68193;BME280;55012;47.562;18.414;2023-02-03T04:39:41;100489.44;;;-0.74;100.00
68193;BME280;55012;47.562;18.414;2023-02-03T04:42:07;100497.97;;;-0.72;100.00
68193;BME280;55012;47.562;18.414;2023-02-03T04:44:33;100496.91;;;-0.71;100.00
68193;BME280;55012;47.562;18.414;2023-02-03T04:46:58;100495.38;;;-0.67;100.00
68193;BME280;55012;47.562;18.414;2023-02-03T04:49:24;100477.34;;;-0.65;100.00
68193;BME280;55012;47.562;18.414;2023-02-03T04:51:49;100492.31;;;-0.59;100.00
68193;BME280;55012;47.562;18.414;2023-02-03T04:54:14;100480.41;;;-0.57;100.00
68193;BME280;55012;47.562;18.414;2023-02-03T04:56:40;100482.34;;;-0.52;100.00
68193;BME280;55012;47.562;18.414;2023-02-03T04:59:06;100484.75;;;-0.50;100.00
68193;BME280;55012;47.562;18.414;2023-02-03T05:01:32;100489.59;;;-0.47;100.00
68193;BME280;55012;47.562;18.414;2023-02-03T05:03:58;100488.22;;;-0.50;100.00
68193;BME280;55012;47.562;18.414;2023-02-03T05:06:24;100497.91;;;-0.44;100.00
68193;BME280;55012;47.562;18.414;2023-02-03T05:08:51;100495.56;;;-0.40;100.00
68193;BME280;55012;47.562;18.414;2023-02-03T05:11:17;100500.97;;;-0.35;100.00
68193;BME280;55012;47.562;18.414;2023-02-03T05:13:42;100499.34;;;-0.36;100.00
68193;BME280;55012;47.562;18.414;2023-02-03T05:16:08;100498.78;;;-0.38;100.00
68193;BME280;55012;47.562;18.414;2023-02-03T05:18:33;100497.19;;;-0.39;100.00
68193;BME280;55012;47.562;18.414;2023-02-03T05:20:59;100488.16;;;-0.38;100.00
68193;BME280;55012;47.562;18.414;2023-02-03T05:23:24;100482.44;;;-0.30;100.00
68193;BME280;55012;47.562;18.414;2023-02-03T05:25:50;100487.00;;;-0.25;100.00
68193;BME280;55012;47.562;18.414;2023-02-03T05:28:15;100480.25;;;-0.16;100.00
68193;BME280;55012;47.562;18.414;2023-02-03T05:30:41;100477.34;;;-0.15;100.00
68193;BME280;55012;47.562;18.414;2023-02-03T05:33:06;100478.41;;;-0.16;100.00
68193;BME280;55012;47.562;18.414;2023-02-03T05:35:32;100465.91;;;-0.15;100.00
68193;BME280;55012;47.562;18.414;2023-02-03T05:37:57;100465.72;;;-0.09;100.00
68193;BME280;55012;47.562;18.414;2023-02-03T05:40:24;100462.09;;;-0.03;100.00
68193;BME280;55012;47.562;18.414;2023-02-03T05:43:08;100459.25;;;0.04;100.00
68193;BME280;55012;47.562;18.414;2023-02-03T05:45:34;100453.22;;;0.09;100.00
68193;BME280;55012;47.562;18.414;2023-02-03T05:47:59;100461.25;;;0.14;100.00
68193;BME280;55012;47.562;18.414;2023-02-03T05:50:27;100469.56;;;0.17;100.00
68193;BME280;55012;47.562;18.414;2023-02-03T05:53:00;100466.16;;;0.22;100.00
68193;BME280;55012;47.562;18.414;2023-02-03T05:55:27;100466.22;;;0.27;100.00
68193;BME280;55012;47.562;18.414;2023-02-03T05:57:52;100465.19;;;0.28;100.00
68193;BME280;55012;47.562;18.414;2023-02-03T06:00:18;100473.47;;;0.32;100.00
68193;BME280;55012;47.562;18.414;2023-02-03T06:02:53;100479.09;;;0.35;100.00
68193;BME280;55012;47.562;18.414;2023-02-03T06:05:20;100479.09;;;0.35;100.00
68193;BME280;55012;47.562;18.414;2023-02-03T06:07:46;100465.81;;;0.35;100.00
68193;BME280;55012;47.562;18.414;2023-02-03T06:10:12;100469.53;;;0.34;100.00
68193;BME280;55012;47.562;18.414;2023-02-03T06:12:38;100474.75;;;0.29;100.00
68193;BME280;55012;47.562;18.414;2023-02-03T06:15:04;100479.53;;;0.27;100.00
68193;BME280;55012;47.562;18.414;2023-02-03T06:17:30;100481.06;;;0.23;100.00
68193;BME280;55012;47.562;18.414;2023-02-03T06:19:55;100482.53;;;0.14;100.00
68193;BME280;55012;47.562;18.414;2023-02-03T06:22:21;100489.63;;;0.08;100.00
68193;BME280;55012;47.562;18.414;2023-02-03T06:24:46;100484.81;;;0.05;100.00
68193;BME280;55012;47.562;18.414;2023-02-03T06:27:13;100482.41;;;0.04;100.00
68193;BME280;55012;47.562;18.414;2023-02-03T06:29:39;100483.75;;;0.06;100.00
68193;BME280;55012;47.562;18.414;2023-02-03T06:32:05;100493.97;;;0.14;100.00
68193;BME280;55012;47.562;18.414;2023-02-03T06:34:31;100493.31;;;0.24;100.00
68193;BME280;55012;47.562;18.414;2023-02-03T06:36:57;100481.78;;;0.35;100.00
68193;BME280;55012;47.562;18.414;2023-02-03T06:39:22;100481.34;;;0.43;100.00
68193;BME280;55012;47.562;18.414;2023-02-03T06:41:48;100480.13;;;0.51;100.00
68193;BME280;55012;47.562;18.414;2023-02-03T06:44:15;100465.56;;;0.59;100.00
68193;BME280;55012;47.562;18.414;2023-02-03T06:46:41;100457.94;;;0.67;100.00
68193;BME280;55012;47.562;18.414;2023-02-03T06:49:06;100463.84;;;0.74;100.00
68193;BME280;55012;47.562;18.414;2023-02-03T06:51:31;100467.38;;;0.80;100.00
68193;BME280;55012;47.562;18.414;2023-02-03T06:53:57;100458.34;;;0.81;100.00
68193;BME280;55012;47.562;18.414;2023-02-03T06:56:23;100458.94;;;0.88;100.00
68193;BME280;55012;47.562;18.414;2023-02-03T06:58:48;100466.47;;;0.91;100.00
68193;BME280;55012;47.562;18.414;2023-02-03T07:01:14;100468.06;;;0.92;100.00
68193;BME280;55012;47.562;18.414;2023-02-03T07:03:39;100479.25;;;0.94;100.00
68193;BME280;55012;47.562;18.414;2023-02-03T07:06:05;100478.81;;;1.02;100.00
68193;BME280;55012;47.562;18.414;2023-02-03T07:08:31;100479.44;;;1.09;100.00
68193;BME280;55012;47.562;18.414;2023-02-03T07:10:56;100478.09;;;1.12;100.00
68193;BME280;55012;47.562;18.414;2023-02-03T07:13:21;100497.91;;;1.21;100.00
68193;BME280;55012;47.562;18.414;2023-02-03T07:15:47;100486.25;;;1.27;100.00
68193;BME280;55012;47.562;18.414;2023-02-03T07:18:12;100477.00;;;1.35;100.00
68193;BME280;55012;47.562;18.414;2023-02-03T07:20:38;100480.75;;;1.39;100.00
68193;BME280;55012;47.562;18.414;2023-02-03T07:23:03;100480.75;;;1.39;100.00
68193;BME280;55012;47.562;18.414;2023-02-03T07:25:29;100479.41;;;1.36;100.00
68193;BME280;55012;47.562;18.414;2023-02-03T07:27:55;100484.19;;;1.34;100.00
68193;BME280;55012;47.562;18.414;2023-02-03T07:30:21;100482.00;;;1.31;100.00
68193;BME280;55012;47.562;18.414;2023-02-03T07:32:48;100492.13;;;1.29;100.00
68193;BME280;55012;47.562;18.414;2023-02-03T07:35:14;100499.06;;;1.30;100.00
68193;BME280;55012;47.562;18.414;2023-02-03T07:37:40;100492.38;;;1.28;100.00
68193;BME280;55012;47.562;18.414;2023-02-03T07:40:06;100490.25;;;1.25;100.00
68193;BME280;55012;47.562;18.414;2023-02-03T07:42:31;100495.31;;;1.26;100.00
68193;BME280;55012;47.562;18.414;2023-02-03T07:44:57;100487.25;;;1.21;100.00
68193;BME280;55012;47.562;18.414;2023-02-03T07:47:22;100485.38;;;1.17;100.00
68193;BME280;55012;47.562;18.414;2023-02-03T07:49:48;100483.19;;;1.13;100.00
68193;BME280;55012;47.562;18.414;2023-02-03T07:52:13;100489.28;;;1.09;100.00
68193;BME280;55012;47.562;18.414;2023-02-03T07:54:39;100484.63;;;0.99;100.00
68193;BME280;55012;47.562;18.414;2023-02-03T07:57:04;100481.06;;;0.89;100.00
68193;BME280;55012;47.562;18.414;2023-02-03T07:59:30;100478.22;;;0.73;100.00
68193;BME280;55012;47.562;18.414;2023-02-03T08:01:55;100485.56;;;0.61;100.00
68193;BME280;55012;47.562;18.414;2023-02-03T08:04:21;100488.31;;;0.49;100.00
68193;BME280;55012;47.562;18.414;2023-02-03T08:06:47;100488.03;;;0.46;100.00
68193;BME280;55012;47.562;18.414;2023-02-03T08:09:14;100481.91;;;0.45;100.00
68193;BME280;55012;47.562;18.414;2023-02-03T08:11:40;100476.31;;;0.47;100.00
68193;BME280;55012;47.562;18.414;2023-02-03T08:14:05;100476.88;;;0.49;100.00
68193;BME280;55012;47.562;18.414;2023-02-03T08:16:31;100469.75;;;0.54;100.00
68193;BME280;55012;47.562;18.414;2023-02-03T08:18:56;100472.50;;;0.60;100.00
68193;BME280;55012;47.562;18.414;2023-02-03T08:21:22;100470.38;;;0.62;100.00
68193;BME280;55012;47.562;18.414;2023-02-03T08:23:48;100468.25;;;0.64;100.00
68193;BME280;55012;47.562;18.414;2023-02-03T08:26:13;100464.00;;;0.63;100.00
68193;BME280;55012;47.562;18.414;2023-02-03T08:28:39;100466.16;;;0.66;100.00
68193;BME280;55012;47.562;18.414;2023-02-03T08:31:09;100459.03;;;0.71;100.00
68193;BME280;55012;47.562;18.414;2023-02-03T08:33:35;100459.09;;;0.76;100.00
68193;BME280;55012;47.562;18.414;2023-02-03T08:36:00;100443.47;;;0.85;100.00
68193;BME280;55012;47.562;18.414;2023-02-03T08:38:27;100450.81;;;1.00;100.00
68193;BME280;55012;47.562;18.414;2023-02-03T08:40:53;100437.84;;;1.08;100.00
68193;BME280;55012;47.562;18.414;2023-02-03T08:43:18;100433.19;;;0.99;100.00
68193;BME280;55012;47.562;18.414;2023-02-03T08:45:44;100425.47;;;0.97;100.00
68193;BME280;55012;47.562;18.414;2023-02-03T08:48:09;100431.47;;;1.09;100.00
68193;BME280;55012;47.562;18.414;2023-02-03T08:50:35;100424.59;;;1.19;100.00
68193;BME280;55012;47.562;18.414;2023-02-03T08:53:00;100418.56;;;1.28;100.00
68193;BME280;55012;47.562;18.414;2023-02-03T08:55:26;100432.97;;;1.32;100.00
68193;BME280;55012;47.562;18.414;2023-02-03T08:57:51;100415.84;;;1.23;100.00
68193;BME280;55012;47.562;18.414;2023-02-03T09:00:17;100431.00;;;1.18;100.00
68193;BME280;55012;47.562;18.414;2023-02-03T09:02:43;100425.00;;;1.05;100.00
68193;BME280;55012;47.562;18.414;2023-02-03T09:05:08;100416.66;;;0.92;100.00
68193;BME280;55012;47.562;18.414;2023-02-03T09:07:34;100407.28;;;0.89;100.00
68193;BME280;55012;47.562;18.414;2023-02-03T09:09:59;100408.59;;;0.87;100.00
68193;BME280;55012;47.562;18.414;2023-02-03T09:12:25;100402.75;;;0.90;100.00
68193;BME280;55012;47.562;18.414;2023-02-03T09:14:50;100400.31;;;0.83;100.00
68193;BME280;55012;47.562;18.414;2023-02-03T09:17:16;100396.81;;;0.82;100.00
68193;BME280;55012;47.562;18.414;2023-02-03T09:19:41;100387.88;;;0.94;100.00
68193;BME280;55012;47.562;18.414;2023-02-03T09:22:07;100385.56;;;1.02;100.00
68193;BME280;55012;47.562;18.414;2023-02-03T09:24:32;100381.31;;;1.06;100.00
68193;BME280;55012;47.562;18.414;2023-02-03T09:26:58;100389.41;;;1.17;100.00
68193;BME280;55012;47.562;18.414;2023-02-03T09:29:25;100382.31;;;1.27;100.00
68193;BME280;55012;47.562;18.414;2023-02-03T09:31:51;100373.03;;;1.35;100.00
68193;BME280;55012;47.562;18.414;2023-02-03T09:34:18;100364.56;;;1.43;100.00
68193;BME280;55012;47.562;18.414;2023-02-03T09:36:44;100360.28;;;1.42;100.00
68193;BME280;55012;47.562;18.414;2023-02-03T09:39:09;100361.34;;;1.41;100.00
68193;BME280;55012;47.562;18.414;2023-02-03T09:44:34;100350.19;;;1.49;100.00
68193;BME280;55012;47.562;18.414;2023-02-03T09:47:16;100349.41;;;1.54;100.00
68193;BME280;55012;47.562;18.414;2023-02-03T09:49:47;100341.72;;;1.62;100.00
68193;BME280;55012;47.562;18.414;2023-02-03T09:52:18;100339.59;;;1.64;100.00
68193;BME280;55012;47.562;18.414;2023-02-03T09:57:43;100336.72;;;1.71;100.00
68193;BME280;55012;47.562;18.414;2023-02-03T10:00:42;100331.19;;;1.83;100.00
68193;BME280;55012;47.562;18.414;2023-02-03T10:04:03;100323.72;;;1.85;100.00
68193;BME280;55012;47.562;18.414;2023-02-03T10:06:35;100318.88;;;1.77;100.00
68193;BME280;55012;47.562;18.414;2023-02-03T10:22:56;100258.41;;;1.40;100.00
68193;BME280;55012;47.562;18.414;2023-02-03T10:25:43;100244.25;;;1.34;100.00
68193;BME280;55012;47.562;18.414;2023-02-03T10:28:21;100237.50;;;1.17;100.00
68193;BME280;55012;47.562;18.414;2023-02-03T10:30:50;100223.88;;;1.08;100.00
68193;BME280;55012;47.562;18.414;2023-02-03T10:33:18;100211.84;;;1.05;100.00
68193;BME280;55012;47.562;18.414;2023-02-03T10:35:52;100203.91;;;1.16;100.00
68193;BME280;55012;47.562;18.414;2023-02-03T10:41:17;100193.31;;;1.31;100.00
68193;BME280;55012;47.562;18.414;2023-02-03T10:43:45;100172.56;;;1.33;100.00
68193;BME280;55012;47.562;18.414;2023-02-03T10:46:12;100165.88;;;1.30;100.00
68193;BME280;55012;47.562;18.414;2023-02-03T10:48:38;100159.75;;;1.35;100.00
68193;BME280;55012;47.562;18.414;2023-02-03T10:51:03;100164.63;;;1.53;100.00
68193;BME280;55012;47.562;18.414;2023-02-03T10:53:36;100159.31;;;1.58;100.00
68193;BME280;55012;47.562;18.414;2023-02-03T10:56:08;100151.56;;;1.57;100.00
68193;BME280;55012;47.562;18.414;2023-02-03T10:58:37;100150.47;;;1.48;100.00
68193;BME280;55012;47.562;18.414;2023-02-03T11:01:10;100156.28;;;1.34;100.00
68193;BME280;55012;47.562;18.414;2023-02-03T11:03:37;100156.25;;;1.24;100.00
68193;BME280;55012;47.562;18.414;2023-02-03T11:08:35;100144.25;;;1.22;100.00
68193;BME280;55012;47.562;18.414;2023-02-03T11:11:07;100136.50;;;1.20;100.00
68193;BME280;55012;47.562;18.414;2023-02-03T11:13:34;100136.53;;;1.25;100.00
68193;BME280;55012;47.562;18.414;2023-02-03T11:16:19;100138.13;;;1.26;100.00
68193;BME280;55012;47.562;18.414;2023-02-03T11:23:55;100120.03;;;1.33;100.00
68193;BME280;55012;47.562;18.414;2023-02-03T11:29:01;100106.50;;;1.50;100.00
68193;BME280;55012;47.562;18.414;2023-02-03T11:31:31;100101.69;;;1.62;100.00
68193;BME280;55012;47.562;18.414;2023-02-03T11:34:02;100095.31;;;1.74;100.00
68193;BME280;55012;47.562;18.414;2023-02-03T11:36:30;100098.00;;;1.79;100.00
68193;BME280;55012;47.562;18.414;2023-02-03T11:41:40;100080.94;;;2.00;100.00
68193;BME280;55012;47.562;18.414;2023-02-03T11:44:17;100081.97;;;2.14;100.00
68193;BME280;55012;47.562;18.414;2023-02-03T11:46:46;100069.16;;;2.21;100.00
68193;BME280;55012;47.562;18.414;2023-02-03T11:52:21;100049.16;;;2.24;100.00
68193;BME280;55012;47.562;18.414;2023-02-03T12:14:43;99985.16;;;1.63;100.00
68193;BME280;55012;47.562;18.414;2023-02-03T12:31:11;99948.38;;;1.50;100.00
68193;BME280;55012;47.562;18.414;2023-02-03T12:33:41;99945.44;;;1.46;100.00
68193;BME280;55012;47.562;18.414;2023-02-03T12:36:36;99938.50;;;1.35;100.00
68193;BME280;55012;47.562;18.414;2023-02-03T12:39:02;99928.38;;;1.32;100.00
68193;BME280;55012;47.562;18.414;2023-02-03T12:41:49;99907.84;;;1.32;100.00
68193;BME280;55012;47.562;18.414;2023-02-03T12:44:22;99895.59;;;1.31;100.00
68193;BME280;55012;47.562;18.414;2023-02-03T12:50:04;99887.59;;;1.52;100.00
68193;BME280;55012;47.562;18.414;2023-02-03T12:57:57;99884.63;;;1.63;100.00
68193;BME280;55012;47.562;18.414;2023-02-03T13:00:35;99879.56;;;1.57;100.00
68193;BME280;55012;47.562;18.414;2023-02-03T13:03:08;99871.56;;;1.47;100.00
68193;BME280;55012;47.562;18.414;2023-02-03T13:06:03;99860.94;;;1.42;100.00
68193;BME280;55012;47.562;18.414;2023-02-03T13:08:34;99856.41;;;1.42;100.00
68193;BME280;55012;47.562;18.414;2023-02-03T13:13:39;99848.38;;;1.57;100.00
68193;BME280;55012;47.562;18.414;2023-02-03T13:16:08;99844.63;;;1.68;100.00
68193;BME280;55012;47.562;18.414;2023-02-03T13:18:38;99835.50;;;1.80;100.00
68193;BME280;55012;47.562;18.414;2023-02-03T13:21:11;99840.00;;;1.89;100.00
68193;BME280;55012;47.562;18.414;2023-02-03T13:23:41;99842.66;;;1.94;100.00
68193;BME280;55012;47.562;18.414;2023-02-03T13:40:51;99810.69;;;1.84;100.00
68193;BME280;55012;47.562;18.414;2023-02-03T13:43:30;99805.31;;;1.89;100.00
68193;BME280;55012;47.562;18.414;2023-02-03T13:45:57;99796.50;;;1.99;100.00
68193;BME280;55012;47.562;18.414;2023-02-03T13:48:26;99800.19;;;2.03;100.00
68193;BME280;55012;47.562;18.414;2023-02-03T13:53:27;99779.91;;;2.07;100.00
68193;BME280;55012;47.562;18.414;2023-02-03T13:55:59;99761.19;;;2.12;100.00
68193;BME280;55012;47.562;18.414;2023-02-03T13:58:35;99780.09;;;2.21;100.00
68193;BME280;55012;47.562;18.414;2023-02-03T14:05:56;99763.53;;;2.24;100.00
68193;BME280;55012;47.562;18.414;2023-02-03T14:16:47;99728.25;;;2.32;100.00
68193;BME280;55012;47.562;18.414;2023-02-03T14:21:58;99738.34;;;2.35;100.00
68193;BME280;55012;47.562;18.414;2023-02-03T14:24:37;99727.38;;;2.37;100.00
68193;BME280;55012;47.562;18.414;2023-02-03T14:27:14;99741.00;;;2.40;100.00
68193;BME280;55012;47.562;18.414;2023-02-03T14:29:40;99727.91;;;2.39;100.00
68193;BME280;55012;47.562;18.414;2023-02-03T14:32:10;99734.28;;;2.43;100.00
68193;BME280;55012;47.562;18.414;2023-02-03T14:34:44;99737.47;;;2.45;100.00
68193;BME280;55012;47.562;18.414;2023-02-03T14:37:20;99720.63;;;2.49;100.00
68193;BME280;55012;47.562;18.414;2023-02-03T14:58:57;99723.03;;;2.46;100.00
68193;BME280;55012;47.562;18.414;2023-02-03T15:04:23;99716.75;;;2.32;100.00
68193;BME280;55012;47.562;18.414;2023-02-03T15:06:51;99701.28;;;2.29;100.00
68193;BME280;55012;47.562;18.414;2023-02-03T15:09:33;99727.47;;;2.27;100.00
68193;BME280;55012;47.562;18.414;2023-02-03T15:12:01;99693.59;;;2.22;100.00
68193;BME280;55012;47.562;18.414;2023-02-03T15:14:29;99708.81;;;2.21;100.00
68193;BME280;55012;47.562;18.414;2023-02-03T15:17:00;99699.22;;;2.20;100.00
68193;BME280;55012;47.562;18.414;2023-02-03T15:19:37;99699.22;;;2.20;100.00
68193;BME280;55012;47.562;18.414;2023-02-03T15:22:27;99701.09;;;2.20;100.00
68193;BME280;55012;47.562;18.414;2023-02-03T15:24:58;99720.06;;;2.18;100.00
68193;BME280;55012;47.562;18.414;2023-02-03T15:27:29;99699.78;;;2.17;100.00
68193;BME280;55012;47.562;18.414;2023-02-03T15:29:55;99707.78;;;2.17;100.00